Terminal Aerodrome Forecast
Issued by NWS Louisville, KY

Home | Current Version | Previous Version | Text Only | Print | Product List | Glossary On
Versions: 1 2 3 4 5 6 7 8 9 10 11 12 13 14 15
074
FTUS43 KLMK 211522 AAA
TAFBWG
TAF AMD
KBWG 211522Z 2115/2212 22006KT P6SM BKN015
     FM211700 25007KT P6SM SCT017 BKN022
     FM211900 26008KT P6SM VCTS SCT025CB BKN040
     FM212200 29006KT P6SM SCT030 BKN250
     FM220700 VRB04KT P6SM FEW250=

USA.gov is the U.S. government's official web portal to all federal, state and local government web resources and services.